Terminal Aerodrome Forecast
Issued by NWS

Home | Current Version | Previous Version | Text Only | Print | Product List | Glossary On
Versions: 1 2 3 4 5 6 7 8 9 10 11 12 13 14 15 16 17 18 19 20 21 22 23 24 25 26 27 28 29 30 31 32 33 34 35 36
371
FTUS44 KLIX 131602 AAA
TAFHDC
TAF AMD
KHDC 131602Z 1316/1412 00000KT 3/4SM BR OVC002
     FM131630 00000KT 2SM BR OVC003
     FM131700 00000KT 6SM BR OVC008
     FM131800 00000KT P6SM OVC015
     FM140400 00000KT 3SM BR OVC008
     FM140700 00000KT 3/4SM BR OVC003=

USA.gov is the U.S. government's official web portal to all federal, state and local government web resources and services.